Hauptseite
METAR-TAF:

METAR-TAF

Flughäfen :

Flughafen Sønderborg

Sønderborg, Dänemark

Breite: 54-58N, Länge: 009-47E, Höhe: 7 m

Beobachtung

Neuester Wetterbericht von vor 35 Minuten, um 17:20 UTC
Wind 5 kt aus West, variierte zwischen Südwest und West/Nordwest
Temperatur 17°C
Luftfeuchtigkeit 77%
Luftdruck 1014 hPa
Sichtweite 10 km oder mehr
Leicht bewölkt in der Höhe von 2000 ft
Durchbrochene Bewölkung in der Höhe von 5500 ft

METAR: EKSB 231720Z 26005KT 230V300 9999 FEW020 BKN055 17/13 Q1014

Zeit: 19:55 (17:55 UTC)

Prognose

Neuester Wetterbericht von vor 3 Stunden und 0 Minuten, um 14:55 UTC
Gültige Prognose vom 23 um 15 UTC bis 23 um 22 UTC
Wind 6 kt aus West
Sichtweite 10 km oder mehr
Aufgelockert bewölkt in der Höhe von 1400 ft
Zeitweise
vom 23 um 15 UTC bis 23 um 22 UTC
Durchbrochene Bewölkung in der Höhe von 1400 ft

TAF: EKSB 231455Z 2315/2322 26006KT 9999 SCT014 TEMPO 2315/2322 BKN014

Wetterbeobachtungen und Prognosen von mehr als 4000 Flughäfen (METAR und TAF Bericht).

Die verfügbaren Stationen werden durch gelbe und rote Markierungen auf der Karte dargestellt.

Führen Sie die Maus auf sie, um den Namen der Station zu sehen.

Darauf klicken, um die Beobachtung von Wetterbeobachtungen und Prognosen zu sehen.

Um die Karte zu ändern : klicken Sie auf den grünen Tasten mit einem schwarzen Kreuz Zum Vergrößern, auf den grünen Button mit einem Gedankenstrich zu verkleinern, oder auf die grünen Pfeile für benachbarte Karten.


METAR-TAF: